Terminal Aerodrome Forecast
Issued by NWS Twin Cities, MN

Home | Current Version | Previous Version | Graphics & Text | Print | Product List | Glossary On
Versions: 1 2 3 4 5 6 7 8 9 10 11 12 13 14 15 16 17 18 19 20 21 22
493
FTUS43 KMPX 192340
TAFSTC
TAF
KSTC 192340Z 2000/2024 02012KT P6SM VCSH OVC040
     FM200200 03011KT 3SM -SN OVC025
     FM200500 03009KT 3SM -SN BR OVC014
     FM200900 02009KT 1SM -SN BR OVC008
     FM201200 03008KT 3SM -SN BR OVC012
     FM201600 34010KT P6SM OVC015
     FM202200 31010KT P6SM BKN020=

USA.gov is the U.S. government's official web portal to all federal, state and local government web resources and services.